EJU1481 LSGG-LGSR
Flight info
| Callsign | EJU1481 |
|---|---|
| Flight time | 2h 24m |
| Altitude | 37000 |
| Route | MEDAM DCT NITAM DCT MOGBO DCT KODOK DCT LATAN DCT TRL UM601 PEXAN |
| Aircraft | A320/M-SDE3FGHIRWY/LB1 |
Departure
| Time | 2026-04-20 12:54 |
|---|---|
| Airport | Geneva International Airport (LSGG) |
Arrival
| Time | 2026-04-20 15:19 |
|---|---|
| Airport | Santorini International Airport (LGSR) |
| Time | Latitude | Longitude | Altitude | Speed | Heading |
|---|---|---|---|---|---|
| 2026-04-20 12:16 | 46.23032 | 6.10570 | 1404 ft | 0 kts | 136° |
| 2026-04-20 12:44 | 46.23043 | 6.10555 | 1408 ft | 4 kts | 145° |
| 2026-04-20 12:44 | 46.23066 | 6.10540 | 1401 ft | 4 kts | 179° |
| 2026-04-20 12:44 | 46.23091 | 6.10549 | 1399 ft | 3 kts | 222° |
| 2026-04-20 12:45 | 46.23094 | 6.10553 | 1398 ft | 0 kts | 225° |
| 2026-04-20 12:47 | 46.23093 | 6.10551 | 1399 ft | 2 kts | 225° |
| 2026-04-20 12:48 | 46.23067 | 6.10513 | 1399 ft | 7 kts | 225° |
| 2026-04-20 12:48 | 46.23038 | 6.10472 | 1398 ft | 5 kts | 225° |
| 2026-04-20 12:48 | 46.23017 | 6.10441 | 1395 ft | 5 kts | 225° |
| 2026-04-20 12:48 | 46.22994 | 6.10407 | 1393 ft | 5 kts | 225° |
| 2026-04-20 12:49 | 46.22958 | 6.10352 | 1393 ft | 9 kts | 232° |
| 2026-04-20 12:49 | 46.22979 | 6.10268 | 1404 ft | 9 kts | 316° |
| 2026-04-20 12:49 | 46.23021 | 6.10209 | 1393 ft | 7 kts | 316° |
| 2026-04-20 12:49 | 46.23054 | 6.10159 | 1393 ft | 9 kts | 303° |
| 2026-04-20 12:50 | 46.23031 | 6.10090 | 1394 ft | 7 kts | 225° |
| 2026-04-20 12:50 | 46.22997 | 6.10041 | 1395 ft | 9 kts | 226° |
| 2026-04-20 12:50 | 46.22944 | 6.09961 | 1401 ft | 12 kts | 224° |
| 2026-04-20 12:50 | 46.22888 | 6.09879 | 1400 ft | 11 kts | 226° |
| 2026-04-20 12:51 | 46.22840 | 6.09810 | 1397 ft | 9 kts | 225° |
| 2026-04-20 12:51 | 46.22801 | 6.09753 | 1395 ft | 7 kts | 225° |
| 2026-04-20 12:51 | 46.22769 | 6.09706 | 1398 ft | 6 kts | 225° |
| 2026-04-20 12:51 | 46.22723 | 6.09639 | 1399 ft | 13 kts | 225° |
| 2026-04-20 12:52 | 46.22659 | 6.09544 | 1399 ft | 13 kts | 227° |
| 2026-04-20 12:52 | 46.22618 | 6.09484 | 1395 ft | 14 kts | 224° |
| 2026-04-20 12:52 | 46.22551 | 6.09299 | 1405 ft | 12 kts | 263° |
| 2026-04-20 12:52 | 46.22561 | 6.09185 | 1413 ft | 14 kts | 302° |
| 2026-04-20 12:53 | 46.22625 | 6.09164 | 1416 ft | 8 kts | 22° |
| 2026-04-20 12:53 | 46.22651 | 6.09195 | 1419 ft | 7 kts | 47° |
| 2026-04-20 12:53 | 46.22719 | 6.09298 | 1421 ft | 15 kts | 45° |
| 2026-04-20 12:53 | 46.22831 | 6.09461 | 1417 ft | 59 kts | 45° |
| 2026-04-20 12:54 | 46.23278 | 6.10121 | 1403 ft | 123 kts | 45° |
| 2026-04-20 12:54 | 46.24003 | 6.11190 | 1385 ft | 172 kts | 45° |
| 2026-04-20 12:54 | 46.24842 | 6.12453 | 1971 ft | 175 kts | 46° |
| 2026-04-20 12:54 | 46.25687 | 6.13717 | 2771 ft | 176 kts | 44° |
| 2026-04-20 12:55 | 46.26585 | 6.15035 | 3123 ft | 195 kts | 45° |
| 2026-04-20 12:55 | 46.27601 | 6.16517 | 3414 ft | 219 kts | 44° |
| 2026-04-20 12:55 | 46.28735 | 6.18169 | 3755 ft | 243 kts | 44° |
| 2026-04-20 12:55 | 46.29976 | 6.19982 | 4240 ft | 260 kts | 44° |
| 2026-04-20 12:56 | 46.31260 | 6.21872 | 5016 ft | 266 kts | 44° |
| 2026-04-20 12:56 | 46.32571 | 6.23801 | 5815 ft | 271 kts | 44° |
| 2026-04-20 12:56 | 46.33905 | 6.25761 | 6597 ft | 276 kts | 44° |
| 2026-04-20 12:56 | 46.35251 | 6.27777 | 7351 ft | 281 kts | 49° |
| 2026-04-20 12:57 | 46.36201 | 6.30262 | 8088 ft | 287 kts | 73° |
| 2026-04-20 12:57 | 46.36354 | 6.33152 | 8851 ft | 292 kts | 100° |
| 2026-04-20 12:57 | 46.35632 | 6.35895 | 9602 ft | 295 kts | 126° |
| 2026-04-20 12:57 | 46.34163 | 6.37942 | 10275 ft | 296 kts | 152° |
| 2026-04-20 12:58 | 46.32234 | 6.39135 | 10747 ft | 312 kts | 162° |
| 2026-04-20 12:58 | 46.30127 | 6.40253 | 10942 ft | 334 kts | 162° |
| 2026-04-20 12:58 | 46.27864 | 6.41426 | 11137 ft | 357 kts | 162° |
| 2026-04-20 12:58 | 46.25488 | 6.42652 | 11644 ft | 367 kts | 162° |
| 2026-04-20 12:59 | 46.23061 | 6.43913 | 12253 ft | 373 kts | 162° |
| 2026-04-20 12:59 | 46.20602 | 6.45202 | 12900 ft | 379 kts | 162° |
| 2026-04-20 12:59 | 46.18111 | 6.46517 | 13519 ft | 384 kts | 162° |
| 2026-04-20 12:59 | 46.15605 | 6.47841 | 14074 ft | 390 kts | 163° |
| 2026-04-20 13:00 | 46.13048 | 6.49190 | 14670 ft | 393 kts | 163° |
| 2026-04-20 13:00 | 46.10465 | 6.50549 | 14945 ft | 395 kts | 163° |
| 2026-04-20 13:00 | 46.07885 | 6.51907 | 15012 ft | 395 kts | 163° |
| 2026-04-20 13:00 | 46.05304 | 6.53265 | 15024 ft | 395 kts | 163° |
| 2026-04-20 13:01 | 46.02718 | 6.54623 | 15223 ft | 397 kts | 163° |
| 2026-04-20 13:01 | 46.00118 | 6.55982 | 15817 ft | 399 kts | 163° |
| 2026-04-20 13:01 | 45.99254 | 6.56432 | 16030 ft | 399 kts | 164° |
| 2026-04-20 13:02 | 45.96643 | 6.57866 | 16620 ft | 401 kts | 163° |
| 2026-04-20 13:02 | 45.94013 | 6.59271 | 17106 ft | 405 kts | 164° |
| 2026-04-20 13:02 | 45.91343 | 6.60650 | 17591 ft | 410 kts | 165° |
| 2026-04-20 13:02 | 45.88646 | 6.62021 | 18117 ft | 414 kts | 165° |
| 2026-04-20 13:03 | 45.85923 | 6.63406 | 18630 ft | 417 kts | 165° |
| 2026-04-20 13:03 | 45.83186 | 6.64808 | 19134 ft | 420 kts | 165° |
| 2026-04-20 13:03 | 45.80422 | 6.66233 | 19640 ft | 424 kts | 165° |
| 2026-04-20 13:03 | 45.77638 | 6.67676 | 20099 ft | 427 kts | 165° |
| 2026-04-20 13:04 | 45.74833 | 6.69134 | 20581 ft | 431 kts | 165° |
| 2026-04-20 13:04 | 45.72005 | 6.70605 | 21041 ft | 435 kts | 165° |
| 2026-04-20 13:04 | 45.69148 | 6.72091 | 21497 ft | 438 kts | 164° |
| 2026-04-20 13:04 | 45.66275 | 6.73578 | 21904 ft | 441 kts | 164° |
| 2026-04-20 13:05 | 45.63383 | 6.75071 | 22334 ft | 443 kts | 165° |
| 2026-04-20 13:05 | 45.60470 | 6.76572 | 22681 ft | 446 kts | 165° |
| 2026-04-20 13:05 | 45.57542 | 6.78080 | 23096 ft | 449 kts | 165° |
| 2026-04-20 13:05 | 45.54593 | 6.79594 | 23518 ft | 452 kts | 165° |
| 2026-04-20 13:06 | 45.51622 | 6.81118 | 23865 ft | 455 kts | 165° |
| 2026-04-20 13:06 | 45.48632 | 6.82653 | 24211 ft | 458 kts | 165° |
| 2026-04-20 13:06 | 45.45629 | 6.84195 | 24537 ft | 460 kts | 165° |
| 2026-04-20 13:06 | 45.42610 | 6.85743 | 24849 ft | 462 kts | 165° |
| 2026-04-20 13:07 | 45.39581 | 6.87296 | 25199 ft | 464 kts | 165° |
| 2026-04-20 13:07 | 45.36534 | 6.88860 | 25484 ft | 467 kts | 165° |
| 2026-04-20 13:07 | 45.33474 | 6.90423 | 25780 ft | 469 kts | 165° |
| 2026-04-20 13:07 | 45.30396 | 6.92005 | 26070 ft | 472 kts | 163° |
| 2026-04-20 13:08 | 45.27411 | 6.94023 | 26367 ft | 479 kts | 154° |
| 2026-04-20 13:08 | 45.24634 | 6.96694 | 26651 ft | 486 kts | 144° |
| 2026-04-20 13:08 | 45.22124 | 6.99955 | 26919 ft | 491 kts | 138° |
| 2026-04-20 13:08 | 45.19677 | 7.03356 | 27165 ft | 494 kts | 138° |
| 2026-04-20 13:09 | 45.17214 | 7.06755 | 27447 ft | 495 kts | 139° |
| 2026-04-20 13:09 | 45.14735 | 7.10153 | 27679 ft | 497 kts | 139° |
| 2026-04-20 13:09 | 45.12241 | 7.13565 | 27919 ft | 499 kts | 138° |
| 2026-04-20 13:09 | 45.09925 | 7.17238 | 28160 ft | 503 kts | 129° |
| 2026-04-20 13:10 | 45.07883 | 7.21277 | 28393 ft | 505 kts | 127° |
| 2026-04-20 13:10 | 45.05862 | 7.25354 | 28604 ft | 506 kts | 127° |
| 2026-04-20 13:10 | 45.03839 | 7.29426 | 28875 ft | 506 kts | 127° |
| 2026-04-20 13:10 | 45.01813 | 7.33498 | 29175 ft | 506 kts | 127° |
| 2026-04-20 13:11 | 44.99884 | 7.37653 | 29466 ft | 507 kts | 120° |
| 2026-04-20 13:11 | 44.98350 | 7.42143 | 29749 ft | 507 kts | 111° |
| 2026-04-20 13:11 | 44.97276 | 7.46879 | 29997 ft | 507 kts | 103° |
| 2026-04-20 13:11 | 44.96543 | 7.51751 | 30246 ft | 507 kts | 101° |
| 2026-04-20 13:12 | 44.95820 | 7.56626 | 30495 ft | 507 kts | 101° |
| 2026-04-20 13:12 | 44.95088 | 7.61489 | 30755 ft | 507 kts | 102° |
| 2026-04-20 13:12 | 44.94106 | 7.66269 | 31011 ft | 507 kts | 111° |
| 2026-04-20 13:12 | 44.92672 | 7.70799 | 31250 ft | 506 kts | 119° |
| 2026-04-20 13:13 | 44.90923 | 7.75088 | 31500 ft | 505 kts | 121° |
| 2026-04-20 13:13 | 44.89154 | 7.79369 | 31747 ft | 505 kts | 121° |
| 2026-04-20 13:13 | 44.87390 | 7.83651 | 31996 ft | 504 kts | 121° |
| 2026-04-20 13:13 | 44.85635 | 7.87927 | 32268 ft | 504 kts | 121° |
| 2026-04-20 13:14 | 44.83886 | 7.92207 | 32522 ft | 504 kts | 121° |
| 2026-04-20 13:14 | 44.82136 | 7.96479 | 32776 ft | 504 kts | 121° |
| 2026-04-20 13:14 | 44.80380 | 8.00744 | 33056 ft | 503 kts | 121° |
| 2026-04-20 13:14 | 44.78620 | 8.05000 | 33337 ft | 503 kts | 121° |
| 2026-04-20 13:15 | 44.76854 | 8.09244 | 33584 ft | 502 kts | 121° |
| 2026-04-20 13:15 | 44.75085 | 8.13484 | 33840 ft | 502 kts | 122° |
| 2026-04-20 13:15 | 44.73316 | 8.17720 | 34080 ft | 502 kts | 121° |
| 2026-04-20 13:15 | 44.71552 | 8.21951 | 34279 ft | 502 kts | 121° |
| 2026-04-20 13:16 | 44.69792 | 8.26182 | 34490 ft | 501 kts | 121° |
| 2026-04-20 13:16 | 44.68034 | 8.30405 | 34698 ft | 501 kts | 122° |
| 2026-04-20 13:16 | 44.66273 | 8.34628 | 34881 ft | 501 kts | 121° |
| 2026-04-20 13:16 | 44.64508 | 8.38844 | 35097 ft | 500 kts | 122° |
| 2026-04-20 13:17 | 44.62744 | 8.43044 | 35295 ft | 500 kts | 121° |
| 2026-04-20 13:17 | 44.61079 | 8.46988 | 35489 ft | 499 kts | 122° |
| 2026-04-20 13:17 | 44.59311 | 8.51173 | 35683 ft | 499 kts | 122° |
| 2026-04-20 13:17 | 44.57548 | 8.55358 | 35869 ft | 499 kts | 122° |
| 2026-04-20 13:18 | 44.55786 | 8.59550 | 36060 ft | 498 kts | 122° |
| 2026-04-20 13:18 | 44.54026 | 8.63734 | 36238 ft | 498 kts | 122° |
| 2026-04-20 13:18 | 44.52262 | 8.67914 | 36406 ft | 498 kts | 122° |
| 2026-04-20 13:18 | 44.50496 | 8.72077 | 36560 ft | 497 kts | 122° |
| 2026-04-20 13:19 | 44.48728 | 8.76233 | 36705 ft | 497 kts | 122° |
| 2026-04-20 13:19 | 44.46956 | 8.80392 | 36883 ft | 496 kts | 122° |
| 2026-04-20 13:19 | 44.45186 | 8.84542 | 36968 ft | 498 kts | 122° |
| 2026-04-20 13:20 | 44.41630 | 8.92885 | 36974 ft | 499 kts | 122° |
| 2026-04-20 13:20 | 44.38070 | 9.01214 | 36972 ft | 499 kts | 122° |
| 2026-04-20 13:21 | 44.34503 | 9.09534 | 36973 ft | 499 kts | 122° |
| 2026-04-20 13:21 | 44.30930 | 9.17840 | 36973 ft | 499 kts | 122° |
| 2026-04-20 13:22 | 44.27346 | 9.26144 | 36978 ft | 499 kts | 122° |
| 2026-04-20 13:22 | 44.23757 | 9.34426 | 36982 ft | 499 kts | 122° |
| 2026-04-20 13:23 | 44.20164 | 9.42705 | 36987 ft | 499 kts | 122° |
| 2026-04-20 13:23 | 44.16567 | 9.50978 | 36991 ft | 499 kts | 122° |
| 2026-04-20 13:24 | 44.12959 | 9.59227 | 36995 ft | 499 kts | 122° |
| 2026-04-20 13:24 | 44.09344 | 9.67464 | 36995 ft | 499 kts | 122° |
| 2026-04-20 13:25 | 44.05729 | 9.75698 | 36998 ft | 499 kts | 122° |
| 2026-04-20 13:25 | 44.02109 | 9.83934 | 36998 ft | 500 kts | 122° |
| 2026-04-20 13:26 | 43.98477 | 9.92170 | 37000 ft | 500 kts | 123° |
| 2026-04-20 13:26 | 43.94832 | 10.00385 | 37000 ft | 500 kts | 123° |
| 2026-04-20 13:27 | 43.91183 | 10.08598 | 36998 ft | 500 kts | 123° |
| 2026-04-20 13:27 | 43.87527 | 10.16806 | 36999 ft | 500 kts | 123° |
| 2026-04-20 13:28 | 43.83863 | 10.25010 | 37004 ft | 500 kts | 123° |
| 2026-04-20 13:28 | 43.80197 | 10.33204 | 37009 ft | 501 kts | 123° |
| 2026-04-20 13:29 | 43.76526 | 10.41392 | 37005 ft | 501 kts | 123° |
| 2026-04-20 13:29 | 43.72846 | 10.49557 | 37009 ft | 500 kts | 123° |
| 2026-04-20 13:30 | 43.69152 | 10.57721 | 37004 ft | 500 kts | 123° |
| 2026-04-20 13:30 | 43.65461 | 10.65862 | 36996 ft | 500 kts | 123° |
| 2026-04-20 13:31 | 43.61766 | 10.73993 | 36986 ft | 500 kts | 123° |
| 2026-04-20 13:31 | 43.58118 | 10.81999 | 36979 ft | 500 kts | 123° |
| 2026-04-20 13:32 | 43.55034 | 10.88743 | 36976 ft | 500 kts | 123° |
| 2026-04-20 13:32 | 43.51328 | 10.96849 | 36979 ft | 500 kts | 123° |
| 2026-04-20 13:33 | 43.47617 | 11.04953 | 36977 ft | 500 kts | 123° |
| 2026-04-20 13:33 | 43.43896 | 11.13029 | 36977 ft | 500 kts | 123° |
| 2026-04-20 13:34 | 43.40163 | 11.21094 | 36981 ft | 500 kts | 123° |
| 2026-04-20 13:34 | 43.36431 | 11.29153 | 36982 ft | 500 kts | 123° |
| 2026-04-20 13:35 | 43.32703 | 11.37202 | 36985 ft | 499 kts | 123° |
| 2026-04-20 13:35 | 43.28964 | 11.45246 | 36986 ft | 500 kts | 123° |
| 2026-04-20 13:36 | 43.25214 | 11.53280 | 36983 ft | 500 kts | 123° |
| 2026-04-20 13:36 | 43.21456 | 11.61302 | 36992 ft | 500 kts | 124° |
| 2026-04-20 13:37 | 43.17690 | 11.69321 | 36994 ft | 500 kts | 124° |
| 2026-04-20 13:37 | 43.13925 | 11.77321 | 36997 ft | 500 kts | 123° |
| 2026-04-20 13:38 | 43.10150 | 11.85321 | 36993 ft | 500 kts | 124° |
| 2026-04-20 13:38 | 43.06370 | 11.93315 | 36993 ft | 500 kts | 124° |
| 2026-04-20 13:39 | 43.02587 | 12.01296 | 36996 ft | 500 kts | 124° |
| 2026-04-20 13:39 | 42.98793 | 12.09273 | 36992 ft | 501 kts | 124° |
| 2026-04-20 13:40 | 42.94985 | 12.17247 | 36992 ft | 501 kts | 124° |
| 2026-04-20 13:40 | 42.91175 | 12.25197 | 36993 ft | 501 kts | 124° |
| 2026-04-20 13:41 | 42.87427 | 12.33009 | 36991 ft | 500 kts | 124° |
| 2026-04-20 13:41 | 42.83629 | 12.40919 | 36995 ft | 499 kts | 124° |
| 2026-04-20 13:42 | 42.79821 | 12.48822 | 36992 ft | 499 kts | 124° |
| 2026-04-20 13:42 | 42.74094 | 12.60671 | 36991 ft | 499 kts | 124° |
| 2026-04-20 13:43 | 42.70265 | 12.68558 | 37004 ft | 499 kts | 124° |
| 2026-04-20 13:43 | 42.66434 | 12.76434 | 37016 ft | 500 kts | 124° |
| 2026-04-20 13:44 | 42.62590 | 12.84307 | 37026 ft | 500 kts | 124° |
| 2026-04-20 13:44 | 42.58739 | 12.92161 | 37023 ft | 500 kts | 124° |
| 2026-04-20 13:45 | 42.54888 | 13.00020 | 37028 ft | 500 kts | 124° |
| 2026-04-20 13:45 | 42.51029 | 13.07867 | 37028 ft | 500 kts | 124° |
| 2026-04-20 13:46 | 42.47165 | 13.15688 | 37026 ft | 499 kts | 125° |
| 2026-04-20 13:46 | 42.43302 | 13.23505 | 37018 ft | 499 kts | 124° |
| 2026-04-20 13:47 | 42.39446 | 13.31314 | 37001 ft | 499 kts | 124° |
| 2026-04-20 13:47 | 42.35585 | 13.39105 | 36994 ft | 499 kts | 125° |
| 2026-04-20 13:48 | 42.31707 | 13.46889 | 36998 ft | 499 kts | 125° |
| 2026-04-20 13:48 | 42.27822 | 13.54656 | 36988 ft | 499 kts | 125° |
| 2026-04-20 13:49 | 42.23928 | 13.62416 | 36991 ft | 499 kts | 125° |
| 2026-04-20 13:49 | 42.20037 | 13.70164 | 36990 ft | 499 kts | 125° |
| 2026-04-20 13:50 | 42.16145 | 13.77908 | 36987 ft | 499 kts | 125° |
| 2026-04-20 13:50 | 42.12243 | 13.85638 | 36988 ft | 499 kts | 125° |
| 2026-04-20 13:51 | 42.08334 | 13.93357 | 36985 ft | 499 kts | 125° |
| 2026-04-20 13:51 | 42.04425 | 14.01076 | 36988 ft | 499 kts | 125° |
| 2026-04-20 13:52 | 42.00511 | 14.08780 | 36990 ft | 499 kts | 125° |
| 2026-04-20 13:52 | 41.96592 | 14.16465 | 36989 ft | 498 kts | 125° |
| 2026-04-20 13:53 | 41.92663 | 14.24133 | 36993 ft | 499 kts | 125° |
| 2026-04-20 13:53 | 41.88731 | 14.31827 | 36996 ft | 499 kts | 125° |
| 2026-04-20 13:54 | 41.84793 | 14.39489 | 36994 ft | 498 kts | 126° |
| 2026-04-20 13:54 | 41.80852 | 14.47117 | 36997 ft | 498 kts | 126° |
| 2026-04-20 13:55 | 41.76918 | 14.54741 | 36992 ft | 497 kts | 125° |
| 2026-04-20 13:55 | 41.72991 | 14.62341 | 36991 ft | 496 kts | 126° |
| 2026-04-20 13:56 | 41.69061 | 14.69920 | 36987 ft | 495 kts | 126° |
| 2026-04-20 13:56 | 41.65124 | 14.77483 | 36991 ft | 496 kts | 126° |
| 2026-04-20 13:57 | 41.61189 | 14.85033 | 36991 ft | 494 kts | 126° |
| 2026-04-20 13:57 | 41.57250 | 14.92562 | 36994 ft | 494 kts | 126° |
| 2026-04-20 13:58 | 41.53314 | 15.00079 | 36997 ft | 494 kts | 126° |
| 2026-04-20 13:58 | 41.49442 | 15.07463 | 36997 ft | 493 kts | 126° |
| 2026-04-20 13:59 | 41.45499 | 15.14940 | 36989 ft | 493 kts | 126° |
| 2026-04-20 13:59 | 41.41557 | 15.22414 | 36988 ft | 493 kts | 126° |
| 2026-04-20 14:00 | 41.37606 | 15.29873 | 36990 ft | 493 kts | 126° |
| 2026-04-20 14:00 | 41.33655 | 15.37312 | 36981 ft | 492 kts | 126° |
| 2026-04-20 14:01 | 41.29692 | 15.44751 | 36983 ft | 493 kts | 126° |
| 2026-04-20 14:01 | 41.25736 | 15.52185 | 36988 ft | 493 kts | 126° |
| 2026-04-20 14:02 | 41.21776 | 15.59628 | 36991 ft | 493 kts | 126° |
| 2026-04-20 14:02 | 41.17802 | 15.67029 | 36991 ft | 492 kts | 126° |
| 2026-04-20 14:03 | 41.13829 | 15.74421 | 36994 ft | 492 kts | 126° |
| 2026-04-20 14:03 | 41.09856 | 15.81812 | 37001 ft | 492 kts | 126° |
| 2026-04-20 14:04 | 41.05874 | 15.89187 | 37003 ft | 492 kts | 127° |
| 2026-04-20 14:04 | 41.01887 | 15.96561 | 37006 ft | 492 kts | 126° |
| 2026-04-20 14:05 | 40.97897 | 16.03919 | 37001 ft | 492 kts | 127° |
| 2026-04-20 14:05 | 40.93899 | 16.11271 | 37004 ft | 492 kts | 127° |
| 2026-04-20 14:06 | 40.89896 | 16.18618 | 37004 ft | 492 kts | 127° |
| 2026-04-20 14:06 | 40.85883 | 16.25961 | 37005 ft | 493 kts | 127° |
| 2026-04-20 14:07 | 40.81867 | 16.33288 | 37004 ft | 492 kts | 127° |
| 2026-04-20 14:07 | 40.77855 | 16.40608 | 37010 ft | 492 kts | 127° |
| 2026-04-20 14:08 | 40.73843 | 16.47910 | 37014 ft | 491 kts | 127° |
| 2026-04-20 14:08 | 40.69829 | 16.55200 | 37012 ft | 491 kts | 127° |
| 2026-04-20 14:09 | 40.65811 | 16.62483 | 37013 ft | 492 kts | 127° |
| 2026-04-20 14:09 | 40.61784 | 16.69757 | 37078 ft | 492 kts | 127° |
| 2026-04-20 14:10 | 40.57747 | 16.77034 | 37087 ft | 492 kts | 127° |
| 2026-04-20 14:10 | 40.53700 | 16.84293 | 37083 ft | 492 kts | 127° |
| 2026-04-20 14:11 | 40.49712 | 16.91446 | 37080 ft | 493 kts | 127° |
| 2026-04-20 14:11 | 40.45655 | 16.98720 | 37066 ft | 493 kts | 127° |
| 2026-04-20 14:12 | 40.42280 | 17.04747 | 37013 ft | 493 kts | 127° |
| 2026-04-20 14:12 | 40.38210 | 17.11988 | 37015 ft | 493 kts | 127° |
| 2026-04-20 14:13 | 40.34136 | 17.19226 | 37010 ft | 493 kts | 127° |
| 2026-04-20 14:13 | 40.30066 | 17.26449 | 37004 ft | 493 kts | 127° |
| 2026-04-20 14:14 | 40.25991 | 17.33665 | 36998 ft | 493 kts | 127° |
| 2026-04-20 14:14 | 40.21911 | 17.40883 | 37015 ft | 493 kts | 127° |
| 2026-04-20 14:15 | 40.17824 | 17.48082 | 37014 ft | 493 kts | 127° |
| 2026-04-20 14:15 | 40.13725 | 17.55276 | 37015 ft | 493 kts | 127° |
| 2026-04-20 14:16 | 40.09618 | 17.62449 | 37016 ft | 493 kts | 127° |
| 2026-04-20 14:16 | 40.05508 | 17.69621 | 37015 ft | 494 kts | 127° |
| 2026-04-20 14:17 | 40.01392 | 17.76802 | 37019 ft | 494 kts | 127° |
| 2026-04-20 14:17 | 39.97282 | 17.83981 | 37018 ft | 494 kts | 127° |
| 2026-04-20 14:18 | 39.93166 | 17.91151 | 37012 ft | 494 kts | 127° |
| 2026-04-20 14:18 | 39.89038 | 17.98308 | 37019 ft | 494 kts | 127° |
| 2026-04-20 14:19 | 39.84900 | 18.05456 | 37022 ft | 495 kts | 127° |
| 2026-04-20 14:19 | 39.80750 | 18.12604 | 37024 ft | 495 kts | 127° |
| 2026-04-20 14:20 | 39.76593 | 18.19742 | 37022 ft | 495 kts | 127° |
| 2026-04-20 14:20 | 39.72441 | 18.26879 | 37025 ft | 495 kts | 127° |
| 2026-04-20 14:21 | 39.68286 | 18.34022 | 37018 ft | 496 kts | 127° |
| 2026-04-20 14:21 | 39.64119 | 18.41146 | 37030 ft | 496 kts | 128° |
| 2026-04-20 14:22 | 39.59940 | 18.48268 | 37035 ft | 496 kts | 128° |
| 2026-04-20 14:22 | 39.55759 | 18.55385 | 37035 ft | 496 kts | 128° |
| 2026-04-20 14:23 | 39.51573 | 18.62499 | 37037 ft | 496 kts | 128° |
| 2026-04-20 14:23 | 39.47384 | 18.69600 | 37032 ft | 496 kts | 128° |
| 2026-04-20 14:24 | 39.43180 | 18.76693 | 37038 ft | 496 kts | 128° |
| 2026-04-20 14:24 | 39.38973 | 18.83775 | 37037 ft | 497 kts | 128° |
| 2026-04-20 14:25 | 39.34766 | 18.90860 | 37042 ft | 497 kts | 128° |
| 2026-04-20 14:25 | 39.30550 | 18.97950 | 37036 ft | 498 kts | 128° |
| 2026-04-20 14:26 | 39.26403 | 19.05105 | 37038 ft | 498 kts | 125° |
| 2026-04-20 14:26 | 39.22491 | 19.12479 | 37032 ft | 498 kts | 123° |
| 2026-04-20 14:27 | 39.18629 | 19.19887 | 37039 ft | 498 kts | 124° |
| 2026-04-20 14:27 | 39.14684 | 19.27234 | 37039 ft | 499 kts | 125° |
| 2026-04-20 14:28 | 39.10691 | 19.34544 | 37050 ft | 499 kts | 125° |
| 2026-04-20 14:28 | 39.06701 | 19.41856 | 37047 ft | 499 kts | 125° |
| 2026-04-20 14:29 | 39.02717 | 19.49171 | 37045 ft | 499 kts | 125° |
| 2026-04-20 14:29 | 38.98727 | 19.56479 | 37048 ft | 500 kts | 125° |
| 2026-04-20 14:30 | 38.94730 | 19.63805 | 37054 ft | 500 kts | 125° |
| 2026-04-20 14:30 | 38.90731 | 19.71106 | 37052 ft | 500 kts | 125° |
| 2026-04-20 14:31 | 38.86714 | 19.78395 | 37049 ft | 500 kts | 125° |
| 2026-04-20 14:31 | 38.82692 | 19.85685 | 37057 ft | 500 kts | 125° |
| 2026-04-20 14:32 | 38.78675 | 19.92968 | 37055 ft | 500 kts | 125° |
| 2026-04-20 14:32 | 38.74650 | 20.00246 | 37058 ft | 501 kts | 125° |
| 2026-04-20 14:33 | 38.70618 | 20.07521 | 37059 ft | 500 kts | 125° |
| 2026-04-20 14:33 | 38.66578 | 20.14784 | 37055 ft | 501 kts | 125° |
| 2026-04-20 14:34 | 38.62534 | 20.22040 | 37053 ft | 501 kts | 125° |
| 2026-04-20 14:34 | 38.58486 | 20.29288 | 37056 ft | 501 kts | 126° |
| 2026-04-20 14:35 | 38.54431 | 20.36525 | 37056 ft | 501 kts | 126° |
| 2026-04-20 14:35 | 38.50373 | 20.43768 | 37055 ft | 501 kts | 126° |
| 2026-04-20 14:36 | 38.46310 | 20.51011 | 37058 ft | 502 kts | 126° |
| 2026-04-20 14:36 | 38.42237 | 20.58234 | 37061 ft | 502 kts | 126° |
| 2026-04-20 14:37 | 38.38157 | 20.65463 | 37066 ft | 502 kts | 126° |
| 2026-04-20 14:37 | 38.34078 | 20.72670 | 37064 ft | 502 kts | 126° |
| 2026-04-20 14:38 | 38.29989 | 20.79877 | 37064 ft | 502 kts | 126° |
| 2026-04-20 14:38 | 38.25888 | 20.87075 | 37063 ft | 502 kts | 126° |
| 2026-04-20 14:39 | 38.21791 | 20.94259 | 37066 ft | 502 kts | 126° |
| 2026-04-20 14:39 | 38.17686 | 21.01447 | 37065 ft | 502 kts | 126° |
| 2026-04-20 14:40 | 38.13578 | 21.08626 | 37065 ft | 502 kts | 126° |
| 2026-04-20 14:40 | 38.09473 | 21.15804 | 37064 ft | 502 kts | 126° |
| 2026-04-20 14:41 | 38.05368 | 21.22962 | 37069 ft | 501 kts | 126° |
| 2026-04-20 14:41 | 38.01255 | 21.30101 | 37067 ft | 501 kts | 126° |
| 2026-04-20 14:42 | 37.97136 | 21.37241 | 37067 ft | 502 kts | 126° |
| 2026-04-20 14:42 | 37.93010 | 21.44360 | 37069 ft | 501 kts | 126° |
| 2026-04-20 14:43 | 37.88885 | 21.51473 | 37066 ft | 501 kts | 126° |
| 2026-04-20 14:43 | 37.84757 | 21.58588 | 37066 ft | 501 kts | 126° |
| 2026-04-20 14:44 | 37.80620 | 21.65685 | 37056 ft | 501 kts | 126° |
| 2026-04-20 14:44 | 37.76480 | 21.72768 | 37064 ft | 501 kts | 127° |
| 2026-04-20 14:45 | 37.72332 | 21.79857 | 37063 ft | 501 kts | 127° |
| 2026-04-20 14:45 | 37.68182 | 21.86931 | 37052 ft | 501 kts | 127° |
| 2026-04-20 14:46 | 37.64037 | 21.94009 | 37045 ft | 502 kts | 127° |
| 2026-04-20 14:46 | 37.59871 | 22.01079 | 37056 ft | 502 kts | 127° |
| 2026-04-20 14:47 | 37.55709 | 22.08139 | 37040 ft | 502 kts | 127° |
| 2026-04-20 14:48 | 37.49462 | 22.18726 | 37038 ft | 502 kts | 127° |
| 2026-04-20 14:48 | 37.45281 | 22.25770 | 37038 ft | 502 kts | 127° |
| 2026-04-20 14:49 | 37.41201 | 22.32896 | 37034 ft | 502 kts | 120° |
| 2026-04-20 14:49 | 37.38394 | 22.40889 | 37029 ft | 500 kts | 108° |
| 2026-04-20 14:50 | 37.36020 | 22.49103 | 37018 ft | 500 kts | 109° |
| 2026-04-20 14:50 | 37.33700 | 22.57071 | 37002 ft | 500 kts | 109° |
| 2026-04-20 14:51 | 37.31296 | 22.65274 | 37009 ft | 500 kts | 109° |
| 2026-04-20 14:51 | 37.29298 | 22.72080 | 37010 ft | 500 kts | 109° |
| 2026-04-20 14:52 | 37.26871 | 22.80319 | 37006 ft | 500 kts | 109° |
| 2026-04-20 14:52 | 37.24475 | 22.88456 | 36998 ft | 500 kts | 109° |
| 2026-04-20 14:53 | 37.22061 | 22.96645 | 37008 ft | 500 kts | 109° |
| 2026-04-20 14:53 | 37.19642 | 23.04826 | 37015 ft | 500 kts | 109° |
| 2026-04-20 14:54 | 37.17203 | 23.13003 | 37006 ft | 501 kts | 109° |
| 2026-04-20 14:54 | 37.14760 | 23.21178 | 37010 ft | 501 kts | 109° |
| 2026-04-20 14:55 | 37.12315 | 23.29352 | 37008 ft | 501 kts | 109° |
| 2026-04-20 14:55 | 37.09867 | 23.37533 | 37001 ft | 501 kts | 109° |
| 2026-04-20 14:56 | 37.07401 | 23.45701 | 36999 ft | 502 kts | 110° |
| 2026-04-20 14:56 | 37.04927 | 23.53865 | 37006 ft | 502 kts | 110° |
| 2026-04-20 14:57 | 37.02457 | 23.62027 | 37002 ft | 502 kts | 110° |
| 2026-04-20 14:57 | 36.99980 | 23.70194 | 37011 ft | 502 kts | 110° |
| 2026-04-20 14:58 | 36.97497 | 23.78353 | 37019 ft | 502 kts | 110° |
| 2026-04-20 14:58 | 36.95008 | 23.86505 | 37016 ft | 502 kts | 110° |
| 2026-04-20 14:59 | 36.92510 | 23.94651 | 37011 ft | 502 kts | 110° |
| 2026-04-20 14:59 | 36.91253 | 23.98737 | 36770 ft | 503 kts | 110° |
| 2026-04-20 14:59 | 36.89998 | 24.02817 | 36061 ft | 504 kts | 110° |
| 2026-04-20 14:59 | 36.88738 | 24.06912 | 35240 ft | 506 kts | 110° |
| 2026-04-20 15:00 | 36.87474 | 24.11016 | 34410 ft | 508 kts | 109° |
| 2026-04-20 15:00 | 36.86202 | 24.15136 | 33413 ft | 511 kts | 109° |
| 2026-04-20 15:00 | 36.84921 | 24.19275 | 32437 ft | 511 kts | 110° |
| 2026-04-20 15:00 | 36.83636 | 24.23425 | 31434 ft | 513 kts | 110° |
| 2026-04-20 15:01 | 36.82349 | 24.27585 | 30371 ft | 515 kts | 110° |
| 2026-04-20 15:01 | 36.81052 | 24.31765 | 29132 ft | 518 kts | 110° |
| 2026-04-20 15:01 | 36.79744 | 24.35958 | 27970 ft | 517 kts | 110° |
| 2026-04-20 15:01 | 36.78488 | 24.39990 | 26831 ft | 517 kts | 110° |
| 2026-04-20 15:02 | 36.77190 | 24.44146 | 26124 ft | 508 kts | 110° |
| 2026-04-20 15:02 | 36.75916 | 24.48225 | 25332 ft | 501 kts | 110° |
| 2026-04-20 15:02 | 36.74867 | 24.52338 | 24566 ft | 494 kts | 102° |
| 2026-04-20 15:02 | 36.74296 | 24.56526 | 23814 ft | 487 kts | 95° |
| 2026-04-20 15:03 | 36.73891 | 24.60698 | 23008 ft | 482 kts | 95° |
| 2026-04-20 15:03 | 36.73485 | 24.64823 | 22318 ft | 475 kts | 95° |
| 2026-04-20 15:03 | 36.73079 | 24.68885 | 21642 ft | 469 kts | 95° |
| 2026-04-20 15:03 | 36.72671 | 24.72894 | 20991 ft | 464 kts | 95° |
| 2026-04-20 15:04 | 36.72264 | 24.76861 | 20359 ft | 458 kts | 95° |
| 2026-04-20 15:04 | 36.71863 | 24.80771 | 19745 ft | 453 kts | 95° |
| 2026-04-20 15:04 | 36.71467 | 24.84646 | 19154 ft | 448 kts | 95° |
| 2026-04-20 15:04 | 36.71079 | 24.88469 | 18593 ft | 443 kts | 95° |
| 2026-04-20 15:05 | 36.70693 | 24.92250 | 18017 ft | 438 kts | 95° |
| 2026-04-20 15:05 | 36.70311 | 24.95984 | 17469 ft | 431 kts | 95° |
| 2026-04-20 15:05 | 36.69934 | 24.99663 | 16944 ft | 426 kts | 95° |
| 2026-04-20 15:05 | 36.69560 | 25.03305 | 16426 ft | 421 kts | 95° |
| 2026-04-20 15:06 | 36.69189 | 25.06897 | 15903 ft | 416 kts | 95° |
| 2026-04-20 15:06 | 36.68817 | 25.10455 | 15379 ft | 413 kts | 95° |
| 2026-04-20 15:06 | 36.68243 | 25.13940 | 14840 ft | 411 kts | 105° |
| 2026-04-20 15:06 | 36.67155 | 25.17221 | 14285 ft | 410 kts | 117° |
| 2026-04-20 15:07 | 36.65586 | 25.20173 | 13702 ft | 408 kts | 129° |
| 2026-04-20 15:07 | 36.63609 | 25.22683 | 13090 ft | 405 kts | 140° |
| 2026-04-20 15:07 | 36.61472 | 25.24935 | 12488 ft | 401 kts | 140° |
| 2026-04-20 15:07 | 36.59363 | 25.27172 | 11878 ft | 397 kts | 140° |
| 2026-04-20 15:08 | 36.57278 | 25.29394 | 11258 ft | 393 kts | 140° |
| 2026-04-20 15:08 | 36.55221 | 25.31590 | 10865 ft | 383 kts | 140° |
| 2026-04-20 15:08 | 36.53245 | 25.33700 | 10736 ft | 366 kts | 140° |
| 2026-04-20 15:08 | 36.51346 | 25.35721 | 10607 ft | 351 kts | 140° |
| 2026-04-20 15:09 | 36.49526 | 25.37653 | 10484 ft | 337 kts | 140° |
| 2026-04-20 15:09 | 36.47775 | 25.39506 | 10361 ft | 325 kts | 140° |
| 2026-04-20 15:09 | 36.46083 | 25.41294 | 10239 ft | 314 kts | 140° |
| 2026-04-20 15:09 | 36.44440 | 25.43029 | 10062 ft | 307 kts | 140° |
| 2026-04-20 15:10 | 36.42826 | 25.44734 | 9895 ft | 305 kts | 140° |
| 2026-04-20 15:10 | 36.41187 | 25.46464 | 9329 ft | 310 kts | 140° |
| 2026-04-20 15:10 | 36.39624 | 25.48252 | 9050 ft | 304 kts | 131° |
| 2026-04-20 15:10 | 36.38397 | 25.50367 | 8663 ft | 302 kts | 122° |
| 2026-04-20 15:11 | 36.37290 | 25.52550 | 8054 ft | 298 kts | 122° |
| 2026-04-20 15:11 | 36.36196 | 25.54713 | 7371 ft | 294 kts | 122° |
| 2026-04-20 15:11 | 36.35110 | 25.56851 | 6683 ft | 292 kts | 122° |
| 2026-04-20 15:11 | 36.34026 | 25.58975 | 6108 ft | 286 kts | 122° |
| 2026-04-20 15:12 | 36.32998 | 25.60981 | 5932 ft | 264 kts | 122° |
| 2026-04-20 15:12 | 36.32054 | 25.62824 | 5822 ft | 246 kts | 122° |
| 2026-04-20 15:12 | 36.31138 | 25.64599 | 5771 ft | 244 kts | 126° |
| 2026-04-20 15:12 | 36.29858 | 25.65901 | 5715 ft | 239 kts | 162° |
| 2026-04-20 15:13 | 36.28263 | 25.66153 | 5680 ft | 225 kts | 190° |
| 2026-04-20 15:13 | 36.26830 | 25.65614 | 5654 ft | 210 kts | 213° |
| 2026-04-20 15:13 | 36.25713 | 25.64501 | 5607 ft | 203 kts | 234° |
| 2026-04-20 15:13 | 36.25061 | 25.63072 | 5598 ft | 181 kts | 255° |
| 2026-04-20 15:14 | 36.24872 | 25.61627 | 5552 ft | 161 kts | 274° |
| 2026-04-20 15:14 | 36.25030 | 25.60338 | 5507 ft | 145 kts | 289° |
| 2026-04-20 15:14 | 36.25452 | 25.59225 | 5485 ft | 142 kts | 304° |
| 2026-04-20 15:14 | 36.26098 | 25.58298 | 5452 ft | 142 kts | 318° |
| 2026-04-20 15:15 | 36.26868 | 25.57516 | 5254 ft | 140 kts | 320° |
| 2026-04-20 15:15 | 36.27639 | 25.56778 | 5031 ft | 140 kts | 322° |
| 2026-04-20 15:15 | 36.28430 | 25.56071 | 4677 ft | 139 kts | 322° |
| 2026-04-20 15:15 | 36.29227 | 25.55343 | 4057 ft | 149 kts | 309° |
| 2026-04-20 15:16 | 36.30103 | 25.54604 | 3432 ft | 155 kts | 310° |
| 2026-04-20 15:16 | 36.31016 | 25.53904 | 2911 ft | 152 kts | 318° |
| 2026-04-20 15:16 | 36.31888 | 25.53234 | 2611 ft | 142 kts | 326° |
| 2026-04-20 15:16 | 36.32689 | 25.52506 | 2175 ft | 144 kts | 313° |
| 2026-04-20 15:17 | 36.33486 | 25.51732 | 1656 ft | 147 kts | 310° |
| 2026-04-20 15:17 | 36.34296 | 25.50981 | 1280 ft | 144 kts | 322° |
| 2026-04-20 15:17 | 36.35127 | 25.50332 | 926 ft | 139 kts | 328° |
| 2026-04-20 15:17 | 36.35988 | 25.49813 | 621 ft | 136 kts | 333° |
| 2026-04-20 15:18 | 36.36865 | 25.49368 | 423 ft | 137 kts | 335° |
| 2026-04-20 15:18 | 36.37756 | 25.48959 | 285 ft | 136 kts | 333° |
| 2026-04-20 15:18 | 36.38638 | 25.48528 | 157 ft | 137 kts | 335° |
| 2026-04-20 15:18 | 36.39505 | 25.48122 | 71 ft | 123 kts | 335° |
| 2026-04-20 15:19 | 36.40147 | 25.47806 | 87 ft | 74 kts | 338° |
| 2026-04-20 15:19 | 36.40442 | 25.47668 | 93 ft | 19 kts | 338° |
| 2026-04-20 15:19 | 36.40457 | 25.47584 | 92 ft | 11 kts | 248° |
| 2026-04-20 15:19 | 36.40444 | 25.47541 | 91 ft | 3 kts | 249° |
| 2026-04-20 15:20 | 36.40435 | 25.47511 | 92 ft | 5 kts | 250° |
| 2026-04-20 15:20 | 36.40420 | 25.47464 | 93 ft | 7 kts | 248° |
| 2026-04-20 15:20 | 36.40419 | 25.47426 | 91 ft | 1 kts | 300° |
| 2026-04-20 15:20 | 36.40420 | 25.47425 | 91 ft | 0 kts | 300° |
| 2026-04-20 15:21 | 36.40429 | 25.47414 | 91 ft | 3 kts | 317° |
| 2026-04-20 15:21 | 36.40433 | 25.47386 | 90 ft | 5 kts | 260° |
| 2026-04-20 15:21 | 36.40422 | 25.47349 | 94 ft | 2 kts | 249° |
| 2026-04-20 15:21 | 36.40418 | 25.47339 | 93 ft | 0 kts | 249° |